Hauptseite
METAR-TAF:

METAR-TAF

Flughäfen :

Sligo, Irland

Breite: 54-16-49N, Länge: 8-35-57W, Höhe: 3 m

Beobachtung

Neuester Wetterbericht von vor 19 Minuten, um 15:00 UTC
Wind 8 kt aus Süd/Südwest
Temperatur 15°C
Luftfeuchtigkeit 51%
Luftdruck 1012 hPa
Sichtweite 10 km oder mehr
keine Wolken unter 1500 m und keine Kumulonimbus oder Gewitterwolken

METAR: EISG 211500Z 21008KT CAVOK 15/05 Q1012

Zeit: 16:19 (15:19 UTC)

Prognose

Neuester Wetterbericht von vor 1 Stunde und 19 Minuten, um 14:00 UTC
Gültige Prognose vom 21 um 15 UTC bis 21 um 24 UTC
Wind 7 kt aus Süd
Sichtweite 10 km oder mehr
Aufgelockert bewölkt in der Höhe von 4000 ft

TAF: EISG 211400Z 2115/2124 19007KT 9999 SCT040

Wetterbeobachtungen und Prognosen von mehr als 4000 Flughäfen (METAR und TAF Bericht).

Die verfügbaren Stationen werden durch gelbe und rote Markierungen auf der Karte dargestellt.

Führen Sie die Maus auf sie, um den Namen der Station zu sehen.

Darauf klicken, um die Beobachtung von Wetterbeobachtungen und Prognosen zu sehen.

Um die Karte zu ändern : klicken Sie auf den grünen Tasten mit einem schwarzen Kreuz Zum Vergrößern, auf den grünen Button mit einem Gedankenstrich zu verkleinern, oder auf die grünen Pfeile für benachbarte Karten.


METAR-TAF: